EW2609 Weather Reports


time (UTC)temp
C
wind
direction
speed
KPH
gust
KPH
rain 1hr
cm
rain 24hr
cm
rain mn
cm
humidity
%
barometer
mb
20190421141555 19 75 8.0 12.9 0.00 0.00 0.00 4 1018.2
20190421140600 19 112 6.4 6.4 0.00 0.00 0.00 4 1018.2
20190421135533 19 104 1.6 3.2 0.00 0.00 0.00 4 1018.2
20190421134536 19 115 9.7 12.9 0.00 0.00 0.00 4 1018.2
20190421133540 19 73 4.8 9.7 0.00 0.00 0.00 4 1018.2
20190421132538 19 91 6.4 8.0 0.00 0.00 0.00 4 1018.2
20190421131603 19 97 6.4 11.3 0.00 0.00 0.00 4 1018.4
20190421130558 19 98 8.0 12.9 0.00 0.00 0.00 4 1019.2
20190421125547 19 112 9.7 12.9 0.00 0.00 0.00 4 1019.2
20190421124547 19 98 6.4 16.1 0.00 0.00 0.00 4 1019.2
20190421123548 18 101 6.4 8.0 0.00 0.00 0.00 4 1019.2
20190421122607 19 92 6.4 12.9 0.00 0.00 0.00 4 1019.2
20190421121534 18 108 6.4 9.7 0.00 0.00 0.00 4 1019.2
20190421120544 18 113 8.0 11.3 0.00 0.00 0.00 4 1019.2
20190421115601 18 151 4.8 6.4 0.00 0.00 0.00 4 1019.2
20190421114531 18 98 4.8 9.7 0.00 0.00 0.00 4 1019.2
20190421113559 18 119 3.2 4.8 0.00 0.00 0.00 4 1019.2
20190421112536 18 100 6.4 8.0 0.00 0.00 0.00 4 1019.2
20190421111554 18 100 6.4 9.7 0.00 0.00 0.00 4 1019.4
20190421110543 18 100 8.0 12.9 0.00 0.00 0.00 4 1020.2
20190421105549 18 94 6.4 9.7 0.00 0.00 0.00 4 1020.2
20190421104532 18 105 8.0 12.9 0.00 0.00 0.00 4 1020.2
20190421103558 18 98 4.8 8.0 0.00 0.00 0.00 4 1020.2
20190421102547 18 84 4.8 6.4 0.00 0.00 0.00 4 1020.2
20190421101600 18 112 6.4 9.7 0.00 0.00 0.00 4 1020.2
20190421100547 18 108 8.0 11.3 0.00 0.00 0.00 4 1020.2
20190421095539 17 98 6.4 9.7 0.00 0.00 0.00 4 1021.2
20190421094541 17 109 8.0 11.3 0.00 0.00 0.00 4 1021.2
20190421093542 17 89 6.4 9.7 0.00 0.00 0.00 4 1021.2
20190421092604 17 92 6.4 8.0 0.00 0.00 0.00 4 1021.2
20190421091605 17 112 9.7 9.7 0.00 0.00 0.00 5 1021.2
20190421090543 17 104 6.4 8.0 0.00 0.00 0.00 5 1021.2
20190421085531 17 112 11.3 14.5 0.00 0.00 0.00 5 1021.2
20190421084559 17 112 8.0 9.7 0.00 0.00 0.00 5 1021.2
20190421083540 17 112 9.7 11.3 0.00 0.00 0.00 5 1021.2
20190421082535 17 106 8.0 12.9 0.00 0.00 0.00 5 1021.2
20190421081553 16 99 6.4 9.7 0.00 0.00 0.00 5 1021.2
20190421080539 16 105 6.4 12.9 0.00 0.00 0.00 5 1021.2
20190421075531 16 109 8.0 9.7 0.00 0.00 0.00 5 1021.2
20190421074559 16 112 6.4 9.7 0.00 0.00 0.00 5 1021.2
20190421073544 16 112 6.4 11.3 0.00 0.00 0.00 5 1021.2
20190421072550 16 100 6.4 9.7 0.00 0.00 0.00 5 1021.2
20190421071600 16 104 8.0 9.7 0.00 0.00 0.00 5 1021.2
20190421070602 17 97 4.8 8.0 0.00 0.00 0.00 5 1021.2
20190421065536 17 87 4.8 6.4 0.00 0.00 0.00 5 1021.2
20190421064542 17 92 4.8 8.0 0.00 0.00 0.00 5 1021.2
20190421063608 17 103 4.8 6.4 0.00 0.00 0.00 5 1021.2
20190421062600 17 95 3.2 3.2 0.00 0.00 0.00 5 1021.2
20190421061549 17 112 1.6 4.8 0.00 0.00 0.00 5 1021.2
20190421060543 17 112 3.2 4.8 0.00 0.00 0.00 5 1021.2
20190421055621 17 100 3.2 3.2 0.00 0.00 0.00 5 1021.2
20190421054555 16 112 0.0 3.2 0.00 0.00 0.00 6 1021.2
20190421053553 16 112 1.6 3.2 0.00 0.00 0.00 11 1021.2
20190421052533 15 112 0.0 3.2 0.00 0.00 0.00 25 1021.2
20190421051541 15 124 1.6 3.2 0.00 0.00 0.00 23 1021.2
20190421050620 13 0.0 0.0 0.00 0.00 0.00 29 1021.2
20190421045534 13 0.0 0.0 0.00 0.00 0.00 33 1021.2
20190421044548 12 247 0.0 0.0 0.00 0.00 0.00 32 1021.2
20190421043551 11 0.0 0.0 0.00 0.00 0.00 32 1021.2
20190421042540 10 247 1.6 1.6 0.00 0.00 0.00 32 1021.2
20190421041559 10 247 0.0 3.2 0.00 0.00 0.00 31 1021.2
20190421040602 10 0.0 0.0 0.00 0.00 0.00 30 1021.2
20190421035529 10 0.0 0.0 0.00 0.00 0.00 28 1021.2
20190421034546 10 112 1.6 3.2 0.00 0.00 0.00 28 1021.2
20190421033606 10 112 0.0 0.0 0.00 0.00 0.00 27 1021.2
20190421032548 10 112 0.0 1.6 0.00 0.00 0.00 27 1021.2
20190421031534 10 0.0 0.0 0.00 0.00 0.00 26 1021.2
20190421030540 11 0.0 0.0 0.00 0.00 0.00 26 1021.2
20190421025554 11 112 0.0 3.2 0.00 0.00 0.00 26 1021.2
20190421024547 11 0.0 0.0 0.00 0.00 0.00 22 1021.2
20190421023610 11 0.0 0.0 0.00 0.00 0.00 20 1021.2
20190421022550 11 0.0 0.0 0.00 0.00 0.00 18 1021.2
20190421021542 11 0.0 0.0 0.00 0.00 0.00 13 1021.2
20190421020608 11 0.0 0.0 0.00 0.00 0.00 9 1021.2
20190421015538 12 45 0.0 1.6 0.00 0.00 0.00 8 1021.2
20190421014541 12 72 0.0 1.6 0.00 0.00 0.00 7 1021.2
20190421013546 12 91 1.6 1.6 0.00 0.00 0.00 6 1022.3
20190421012549 12 62 1.6 3.2 0.00 0.00 0.00 6 1022.3
20190421011555 13 77 3.2 3.2 0.00 0.00 0.00 6 1022.3
20190421010651 13 90 3.2 3.2 0.00 0.00 0.00 6 1022.3
20190421005601 13 100 3.2 4.8 0.00 0.00 0.00 6 1022.3
20190421004535 13 91 3.2 4.8 0.00 0.00 0.00 6 1022.3
20190421003555 13 90 0.0 3.2 0.00 0.00 0.00 6 1022.3
20190421002559 13 0.0 0.0 0.00 0.00 0.00 6 1022.3
20190421001548 13 0.0 0.0 0.00 0.00 0.00 6 1022.3
20190421000613 13 0.0 0.0 0.00 0.00 0.00 6 1022.3
20190420235549 13 0.0 0.0 0.00 0.00 0.00 6 1022.3
20190420234600 13 67 0.0 1.6 0.00 0.00 0.00 6 1022.3
20190420233606 13 86 1.6 1.6 0.00 0.00 0.00 6 1022.3
20190420232758 -17 67 0.0 0.0 0.00 0.00 0.00 1022.3
20190420231542 13 0.0 0.0 0.00 0.00 0.00 6 1022.3
20190420230557 13 67 0.0 0.0 0.00 0.00 0.00 6 1023.3
20190420225558 13 67 0.0 3.2 0.00 0.00 0.00 6 1023.3
20190420224546 13 67 0.0 0.0 0.00 0.00 0.00 6 1023.3
20190420223542 13 191 1.6 3.2 0.00 0.00 0.00 6 1023.3
20190420222532 13 67 0.0 1.6 0.00 0.00 0.00 6 1023.3
20190420221551 13 67 1.6 3.2 0.00 0.00 0.00 6 1023.3
20190420220550 13 240 0.0 3.2 0.00 0.00 0.00 6 1023.3
20190420215558 13 236 4.8 4.8 0.00 0.00 0.00 6 1023.3
20190420214540 12 208 0.0 1.6 0.00 0.00 0.00 6 1023.3
20190420213545 13 225 1.6 3.2 0.00 0.00 0.00 6 1023.3
20190420212600 13 225 1.6 1.6 0.00 0.00 0.00 6 1023.3
20190420211604 13 225 1.6 3.2 0.00 0.00 0.00 6 1023.3
20190420210541 13 225 0.0 1.6 0.00 0.00 0.00 6 1023.3
20190420205548 13 225 0.0 0.0 0.00 0.00 0.00 6 1023.3
20190420204533 13 233 1.6 3.2 0.00 0.00 0.00 6 1023.3
20190420203548 13 225 1.6 3.2 0.00 0.00 0.00 6 1023.3
20190420202548 13 225 0.0 3.2 0.00 0.00 0.00 6 1023.3
20190420201539 13 225 0.0 1.6 0.00 0.00 0.00 6 1023.3
20190420200545 13 225 0.0 3.2 0.00 0.00 0.00 6 1023.3
20190420195600 13 225 0.0 0.0 0.00 0.00 0.00 6 1023.3
20190420194537 13 225 0.0 1.6 0.00 0.00 0.00 6 1023.3
20190420193543 13 225 0.0 1.6 0.00 0.00 0.00 6 1023.3
20190420192531 13 225 0.0 0.0 0.00 0.00 0.00 6 1023.3
20190420191600 13 0.0 0.0 0.00 0.00 0.00 6 1023.3
20190420190545 13 0.0 0.0 0.00 0.00 0.00 6 1023.3
20190420185549 13 247 0.0 0.0 0.00 0.00 0.00 6 1023.3
20190420184536 13 247 0.0 0.0 0.00 0.00 0.00 6 1023.3
20190420183539 14 247 0.0 1.6 0.00 0.00 0.00 6 1023.3
20190420182602 14 90 0.0 3.2 0.00 0.00 0.00 6 1023.3
20190420181600 15 90 3.2 3.2 0.00 0.00 0.00 6 1023.3
20190420180541 15 90 0.0 1.6 0.00 0.00 0.00 6 1023.3
20190420175548 15 90 1.6 3.2 0.00 0.00 0.00 6 1023.3
20190420174553 16 0.0 0.0 0.00 0.00 0.00 5 1023.3
20190420173548 16 0.0 0.0 0.00 0.00 0.00 5 1023.3
20190420172549 17 0.0 0.0 0.00 0.00 0.00 5 1023.3
20190420171531 17 90 0.0 1.6 0.00 0.00 0.00 5 1023.3
20190420170609 17 90 1.6 3.2 0.00 0.00 0.00 4 1023.3
20190420165543 18 112 3.2 4.8 0.00 0.00 0.00 4 1023.3
20190420164537 18 90 3.2 3.2 0.00 0.00 0.00 4 1023.3
20190420163609 18 88 6.4 8.0 0.00 0.00 0.00 4 1024.3
20190420162540 18 106 4.8 6.4 0.00 0.00 0.00 4 1024.3
20190420161538 18 95 4.8 6.4 0.00 0.00 0.00 4 1024.3
20190420160612 18 112 4.8 4.8 0.00 0.00 0.00 4 1024.3
20190420155535 19 112 4.8 6.4 0.00 0.00 0.00 4 1024.3
20190420154533 19 102 3.2 4.8 0.00 0.00 0.00 4 1024.3
20190420153557 19 112 4.8 6.4 0.00 0.00 0.00 4 1024.3
20190420152535 19 94 4.8 4.8 0.00 0.00 0.00 4 1024.3
20190420151541 19 106 4.8 6.4 0.00 0.00 0.00 4 1024.3
20190420150549 19 104 6.4 9.7 0.00 0.00 0.00 4 1024.3
20190420145540 19 94 4.8 6.4 0.00 0.00 0.00 4 1024.3
20190420144550 19 103 4.8 8.0 0.00 0.00 0.00 4 1024.3
20190420143557 19 103 4.8 8.0 0.00 0.00 0.00 4 1025.4
20190420142600 19 104 6.4 9.7 0.00 0.00 0.00 4 1025.4